Bochem Mumbai — VRHJ8 — position and weather

sailwx.info

Track history (hours):
 
Tides and Currents Weather Stations Pressure Air Temp Water Temp Dewpoint Dewpoint Depression Visibility Wind Speed Wind Dir Waves Ship Positions

Bochem Mumbai

Last reported at 2014-Sep-21 23:33 UTC. Time now 2014-Sep-22 00:16 UTC.
Position N 51°56' E 004°12'.

Length 171 m; draft 7 m.

Type: Tanker. MMSI: 477932400.

Date/timePositionNaut miles runAvg speedWind from/ knotsBaromVisibWave heightAir tempDewpointWater temp
2014-Sep-21 23:33N 51°56' E 004°12'0 0.0
2014-Sep-21 22:33N 51°56' E 004°12'0 0.0
2014-Sep-21 21:33N 51°56' E 004°12'0 0.0
2014-Sep-21 20:33N 51°56' E 004°12'2 2.2
2014-Sep-21 19:33N 51°57' E 004°09'9 9.0
2014-Sep-21 18:33N 51°59' E 003°55'8 8.3
2014-Sep-21 17:33N 51°58' E 003°42'43 1.7
2014-Sep-20 16:25N 51°58' E 002°32'8 7.1
2014-Sep-20 15:21N 52°05' E 002°31'9 7.8
2014-Sep-20 14:16N 52°14' E 002°27'4 5.4
2014-Sep-20 13:29N 52°13' E 002°34'3 3.1
2014-Sep-20 12:31N 52°15' E 002°38'11 5.8
2014-Sep-20 10:33N 52°25' E 002°29'7 6.6
2014-Sep-20 09:29N 52°22' E 002°39'9 6.4
2014-Sep-20 08:04N 52°31' E 002°36'4 7.3
2014-Sep-20 07:33N 52°34' E 002°39'10 6.7
2014-Sep-20 06:05N 52°44' E 002°38'4 6.9
2014-Sep-20 05:30N 52°46' E 002°44'7 7.0
2014-Sep-20 04:31N 52°44' E 002°55'10 5.1
2014-Sep-20 02:33N 52°36' E 003°04'8 7.2
2014-Sep-20 01:28N 52°29' E 002°59'7 7.4
2014-Sep-20 00:33N 52°23' E 002°52'8 7.6
2014-Sep-19 23:33N 52°17' E 002°45'7 7.0
2014-Sep-19 22:30N 52°10' E 002°43'9 7.1
2014-Sep-19 21:15N 52°01' E 002°41'5 7.2
2014-Sep-19 20:29N 51°56' E 002°46'8 7.8
2014-Sep-19 19:29N 52°01' E 002°56'8 7.3
2014-Sep-19 18:27N 52°03' E 003°08'1112.5
2014-Sep-19 17:33N 52°03' E 003°26'1413.6
2014-Sep-19 16:33N 52°02' E 003°48'1211.7
2014-Sep-19 15:33N 51°59' E 004°07'10 9.6
2014-Sep-19 14:29N 51°54' E 004°21'0 0.0
2014-Sep-19 13:32N 51°54' E 004°21'0 0.0
2014-Sep-19 12:23N 51°54' E 004°21'0 0.0
2014-Sep-19 11:32N 51°54' E 004°21'0 0.0
2014-Sep-19 10:29N 51°54' E 004°21'0 0.0
2014-Sep-19 09:20N 51°54' E 004°21'0 0.0
2014-Sep-19 08:29N 51°54' E 004°21'0 0.0
2014-Sep-19 07:32N 51°54' E 004°21'0 0.0
2014-Sep-19 06:32N 51°54' E 004°21'0 0.0
2014-Sep-19 05:32N 51°54' E 004°21'0 0.0
2014-Sep-19 04:26N 51°54' E 004°21'0 0.0
2014-Sep-19 03:32N 51°54' E 004°21'0 0.0
2014-Sep-19 02:29N 51°54' E 004°21'0 0.0
2014-Sep-19 01:26N 51°54' E 004°21'0 0.0
2014-Sep-19 00:32N 51°54' E 004°21'0 0.0
2014-Sep-18 23:32N 51°54' E 004°21'0 0.0
2014-Sep-18 22:32N 51°54' E 004°21'0 0.0
2014-Sep-18 21:17N 51°54' E 004°21'0 0.0
2014-Sep-18 20:32N 51°54' E 004°21'161161.0
2014-Sep-18 19:32N 51°54' E 000°00'16178.6
2014-Sep-18 17:29N 51°54' E 004°21'0 0.0
2014-Sep-18 16:32N 51°54' E 004°21'0 0.0
2014-Sep-18 15:29N 51°54' E 004°21'0 0.0
2014-Sep-18 14:32N 51°54' E 004°21'0 0.0
2014-Sep-18 13:20N 51°54' E 004°21'0 0.0
2014-Sep-18 12:32N 51°54' E 004°21'0 0.0
2014-Sep-18 11:32N 51°54' E 004°21'0 0.0
2014-Sep-18 10:32N 51°54' E 004°21'0 0.0
2014-Sep-18 09:32N 51°54' E 004°21'0 0.0
2014-Sep-18 08:26N 51°54' E 004°21'0 0.0
2014-Sep-18 07:26N 51°54' E 004°21'0 0.0
2014-Sep-18 06:29N 51°54' E 004°21'0 0.0
2014-Sep-18 05:32N 51°54' E 004°21'0 0.0
2014-Sep-18 04:32N 51°54' E 004°21'0 0.0
2014-Sep-18 03:32N 51°54' E 004°21'0 0.0
2014-Sep-18 02:32N 51°54' E 004°21'0 0.0
2014-Sep-18 01:32N 51°54' E 004°21'0 0.0
2014-Sep-18 00:32N 51°54' E 004°21'0 0.0
2014-Sep-17 23:26N 51°54' E 004°21'0 0.0
2014-Sep-17 22:29N 51°54' E 004°21'0 0.0
2014-Sep-17 21:32N 51°54' E 004°21'0 0.0
2014-Sep-17 20:23N 51°54' E 004°21'0 0.0
2014-Sep-17 19:32N 51°54' E 004°21'0 0.0
2014-Sep-17 18:29N 51°54' E 004°21'0 0.0
2014-Sep-17 17:26N 51°54' E 004°21'0 0.0
2014-Sep-17 16:32N 51°54' E 004°21'0 0.0
2014-Sep-17 15:32N 51°54' E 004°21'0 0.0
2014-Sep-17 14:32N 51°54' E 004°21'0 0.0
2014-Sep-17 13:32N 51°54' E 004°21'0 0.0
2014-Sep-17 12:32N 51°54' E 004°21'0 0.0
2014-Sep-17 11:32N 51°54' E 004°21'1 1.4
2014-Sep-17 10:33N 51°54' E 004°19'10 9.9
2014-Sep-17 09:33N 51°59' E 004°06'1111.3
2014-Sep-17 08:33N 51°59' E 003°47'3 3.1
2014-Sep-17 07:33N 51°56' E 003°49'0 0.0
2014-Sep-17 06:34N 51°56' E 003°49'0 0.1
2014-Sep-17 05:33N 51°56' E 003°48'0 0.1
2014-Sep-17 04:33N 51°56' E 003°48'0 0.1
2014-Sep-17 03:33N 51°56' E 003°48'0 0.0
2014-Sep-17 02:33N 51°56' E 003°48'0 0.0
2014-Sep-17 01:27N 51°56' E 003°48'0 0.0
2014-Sep-17 00:30N 51°56' E 003°49'0 0.1
2014-Sep-16 23:34N 51°56' E 003°49'0 0.1
2014-Sep-16 22:33N 51°56' E 003°49'0 0.0
2014-Sep-16 21:33N 51°56' E 003°49'0 0.0
2014-Sep-16 20:33N 51°56' E 003°49'2 1.9
2014-Sep-16 19:33N 51°58' E 003°47'1212.2
2014-Sep-16 18:33N 51°56' E 003°28'1312.7
2014-Sep-16 17:30N 51°46' E 003°13'1010.5
2014-Sep-16 16:33N 51°38' E 003°22'1111.0
2014-Sep-16 15:33N 51°28' E 003°31'8 8.3
2014-Sep-16 14:33N 51°24' E 003°43'9 9.1
2014-Sep-16 13:33N 51°24' E 003°57'9 9.0
2014-Sep-16 12:34N 51°24' E 004°12'9 8.6
2014-Sep-16 11:34N 51°16' E 004°17'0 0.0
2014-Sep-16 10:33N 51°16' E 004°17'1 0.8
2014-Sep-16 09:30N 51°16' E 004°15'0 0.0
2014-Sep-16 08:30N 51°16' E 004°15'0 0.0
2014-Sep-16 07:30N 51°16' E 004°15'0 0.0
2014-Sep-16 06:24N 51°16' E 004°15'0 0.0
2014-Sep-16 05:27N 51°16' E 004°15'0 0.0
2014-Sep-16 04:24N 51°16' E 004°15'0 0.0
2014-Sep-16 03:30N 51°16' E 004°15'0 0.0
2014-Sep-16 02:33N 51°16' E 004°15'0 0.0
2014-Sep-16 01:30N 51°16' E 004°15'0 0.0
2014-Sep-16 00:30N 51°16' E 004°15'0 0.0
2014-Sep-15 23:30N 51°16' E 004°15'0 0.0
2014-Sep-15 22:33N 51°16' E 004°15'0 0.0
2014-Sep-15 21:33N 51°16' E 004°15'0 0.0
2014-Sep-15 20:24N 51°16' E 004°15'0 0.0
2014-Sep-15 19:12N 51°16' E 004°15'0 0.0
2014-Sep-15 18:06N 51°16' E 004°15'0 0.0
2014-Sep-15 17:24N 51°16' E 004°15'0 0.0
2014-Sep-15 16:24N 51°16' E 004°15'0 0.0
2014-Sep-15 15:24N 51°16' E 004°15'0 0.0
2014-Sep-15 14:30N 51°16' E 004°15'0 0.0
2014-Sep-15 13:24N 51°16' E 004°15'0 0.0
2014-Sep-15 12:30N 51°16' E 004°15'0 0.0
2014-Sep-15 11:30N 51°16' E 004°15'0 0.0
2014-Sep-15 10:27N 51°16' E 004°15'0 0.0
2014-Sep-15 09:12N 51°16' E 004°15'0 0.0
2014-Sep-15 08:27N 51°16' E 004°15'0 0.0
2014-Sep-15 07:30N 51°16' E 004°15'0 0.0
2014-Sep-15 06:30N 51°16' E 004°15'0 0.0
2014-Sep-15 05:30N 51°16' E 004°15'0 0.0
2014-Sep-15 04:30N 51°16' E 004°15'0 0.0
2014-Sep-15 03:33N 51°16' E 004°15'0 0.0
2014-Sep-15 02:06N 51°16' E 004°15'0 0.0
2014-Sep-15 01:30N 51°16' E 004°15'0 0.0
2014-Sep-15 00:33N 51°16' E 004°15'0 0.0
2014-Sep-14 23:33N 51°16' E 004°15'0 0.0
2014-Sep-14 22:33N 51°16' E 004°15'0 0.0
2014-Sep-14 21:30N 51°16' E 004°15'0 0.0
2014-Sep-14 20:33N 51°16' E 004°15'0 0.0
2014-Sep-14 19:33N 51°16' E 004°15'0 0.0
2014-Sep-14 18:33N 51°16' E 004°15'0 0.0
2014-Sep-14 17:33N 51°16' E 004°15'0 0.0
2014-Sep-14 16:30N 51°16' E 004°15'0 0.0
2014-Sep-14 15:33N 51°16' E 004°15'0 0.0
2014-Sep-14 14:30N 51°16' E 004°15'0 0.0
2014-Sep-14 13:33N 51°16' E 004°15'0 0.0
2014-Sep-14 12:30N 51°16' E 004°15'0 0.0
2014-Sep-14 11:30N 51°16' E 004°15'0 0.0
2014-Sep-14 10:24N 51°16' E 004°15'0 0.0
2014-Sep-14 09:33N 51°16' E 004°15'0 0.0
2014-Sep-14 08:33N 51°16' E 004°15'0 0.0
2014-Sep-14 07:33N 51°16' E 004°15'1 0.9
2014-Sep-14 06:34N 51°16' E 004°17'2 2.0
2014-Sep-14 05:34N 51°17' E 004°19'0 0.4
2014-Sep-14 04:34N 51°17' E 004°20'5 5.1
2014-Sep-14 03:33N 51°21' E 004°18'0 0.3
2014-Sep-14 02:32N 51°22' E 004°17'0 0.0
2014-Sep-14 01:18N 51°22' E 004°17'0 0.0
2014-Sep-13 16:21N 51°22' E 004°17'0 0.0
2014-Sep-13 15:30N 51°22' E 004°17'0 0.4
2014-Sep-13 14:33N 51°21' E 004°18'6 6.3
2014-Sep-13 13:33N 51°16' E 004°21'0 0.2
2014-Sep-13 12:32N 51°16' E 004°22'0 0.0
2014-Sep-13 11:32N 51°16' E 004°22'0 0.0
2014-Sep-13 10:32N 51°16' E 004°22'0 0.0
2014-Sep-13 09:32N 51°16' E 004°22'0 0.0
2014-Sep-13 08:32N 51°16' E 004°22'0 0.0
2014-Sep-13 07:32N 51°16' E 004°22'0 0.0
2014-Sep-13 06:32N 51°16' E 004°22'0 0.0
2014-Sep-13 05:29N 51°16' E 004°22'0 0.0
2014-Sep-13 04:32N 51°16' E 004°22'0 0.0
2014-Sep-13 03:29N 51°16' E 004°22'0 0.0
2014-Sep-13 02:29N 51°16' E 004°22'0 0.1
2014-Sep-13 01:33N 51°16' E 004°22'0 0.3
2014-Sep-13 00:31N 51°15' E 004°22'0 0.0
2014-Sep-12 23:31N 51°15' E 004°22'0 0.0
2014-Sep-12 22:28N 51°15' E 004°22'0 0.0
2014-Sep-12 21:31N 51°15' E 004°22'0 0.0
2014-Sep-12 20:31N 51°15' E 004°22'0 0.0
2014-Sep-12 19:31N 51°15' E 004°22'0 0.0
2014-Sep-12 18:31N 51°15' E 004°22'0 0.0
2014-Sep-12 17:31N 51°15' E 004°22'0 0.0
2014-Sep-12 16:31N 51°15' E 004°22'0 0.0
2014-Sep-12 15:31N 51°15' E 004°22'0 0.0
2014-Sep-12 14:31N 51°15' E 004°22'0 0.0
2014-Sep-12 13:31N 51°15' E 004°22'0 0.0
2014-Sep-12 12:31N 51°15' E 004°22'0 0.0
2014-Sep-12 11:31N 51°15' E 004°22'0 0.0
2014-Sep-12 10:31N 51°15' E 004°22'0 0.0
2014-Sep-12 09:31N 51°15' E 004°22'0 0.0
2014-Sep-12 08:31N 51°15' E 004°22'0 0.0
2014-Sep-12 07:31N 51°15' E 004°22'0 0.0
2014-Sep-12 06:31N 51°15' E 004°22'0 0.0
2014-Sep-12 05:31N 51°15' E 004°22'1 0.7
2014-Sep-12 04:33N 51°16' E 004°21'1 1.0
2014-Sep-12 03:34N 51°17' E 004°20'0 0.0
2014-Sep-12 02:33N 51°17' E 004°20'0 0.0
2014-Sep-12 01:33N 51°17' E 004°20'0 0.0
2014-Sep-12 00:30N 51°17' E 004°20'  
Track history (hours):
 
Tides and Currents Weather Stations Pressure Air Temp Water Temp Dewpoint Dewpoint Depression Visibility Wind Speed Wind Dir Waves Ship Positions

Bochem Mumbai

Last reported at 2014-Sep-21 23:33 UTC. Time now 2014-Sep-22 00:16 UTC.
Position N 51°56' E 004°12'.

Length 171 m; draft 7 m.

Type: Tanker. MMSI: 477932400.

Date/timePositionNaut miles runAvg speedWind from/ knotsBaromVisibWave heightAir tempDewpointWater temp
2014-Sep-21 23:33N 51°56' E 004°12'0 0.0
2014-Sep-21 22:33N 51°56' E 004°12'0 0.0
2014-Sep-21 21:33N 51°56' E 004°12'0 0.0
2014-Sep-21 20:33N 51°56' E 004°12'2 2.2
2014-Sep-21 19:33N 51°57' E 004°09'9 9.0
2014-Sep-21 18:33N 51°59' E 003°55'8 8.3
2014-Sep-21 17:33N 51°58' E 003°42'43 1.7
2014-Sep-20 16:25N 51°58' E 002°32'8 7.1
2014-Sep-20 15:21N 52°05' E 002°31'9 7.8
2014-Sep-20 14:16N 52°14' E 002°27'4 5.4
2014-Sep-20 13:29N 52°13' E 002°34'3 3.1
2014-Sep-20 12:31N 52°15' E 002°38'11 5.8
2014-Sep-20 10:33N 52°25' E 002°29'7 6.6
2014-Sep-20 09:29N 52°22' E 002°39'9 6.4
2014-Sep-20 08:04N 52°31' E 002°36'4 7.3
2014-Sep-20 07:33N 52°34' E 002°39'10 6.7
2014-Sep-20 06:05N 52°44' E 002°38'4 6.9
2014-Sep-20 05:30N 52°46' E 002°44'7 7.0
2014-Sep-20 04:31N 52°44' E 002°55'10 5.1
2014-Sep-20 02:33N 52°36' E 003°04'8 7.2
2014-Sep-20 01:28N 52°29' E 002°59'7 7.4
2014-Sep-20 00:33N 52°23' E 002°52'8 7.6
2014-Sep-19 23:33N 52°17' E 002°45'7 7.0
2014-Sep-19 22:30N 52°10' E 002°43'9 7.1
2014-Sep-19 21:15N 52°01' E 002°41'5 7.2
2014-Sep-19 20:29N 51°56' E 002°46'8 7.8
2014-Sep-19 19:29N 52°01' E 002°56'8 7.3
2014-Sep-19 18:27N 52°03' E 003°08'1112.5
2014-Sep-19 17:33N 52°03' E 003°26'1413.6
2014-Sep-19 16:33N 52°02' E 003°48'1211.7
2014-Sep-19 15:33N 51°59' E 004°07'10 9.6
2014-Sep-19 14:29N 51°54' E 004°21'0 0.0
2014-Sep-19 13:32N 51°54' E 004°21'0 0.0
2014-Sep-19 12:23N 51°54' E 004°21'0 0.0
2014-Sep-19 11:32N 51°54' E 004°21'0 0.0
2014-Sep-19 10:29N 51°54' E 004°21'0 0.0
2014-Sep-19 09:20N 51°54' E 004°21'0 0.0
2014-Sep-19 08:29N 51°54' E 004°21'0 0.0
2014-Sep-19 07:32N 51°54' E 004°21'0 0.0
2014-Sep-19 06:32N 51°54' E 004°21'0 0.0
2014-Sep-19 05:32N 51°54' E 004°21'0 0.0
2014-Sep-19 04:26N 51°54' E 004°21'0 0.0
2014-Sep-19 03:32N 51°54' E 004°21'0 0.0
2014-Sep-19 02:29N 51°54' E 004°21'0 0.0
2014-Sep-19 01:26N 51°54' E 004°21'0 0.0
2014-Sep-19 00:32N 51°54' E 004°21'0 0.0
2014-Sep-18 23:32N 51°54' E 004°21'0 0.0
2014-Sep-18 22:32N 51°54' E 004°21'0 0.0
2014-Sep-18 21:17N 51°54' E 004°21'0 0.0
2014-Sep-18 20:32N 51°54' E 004°21'161161.0
2014-Sep-18 19:32N 51°54' E 000°00'16178.6
2014-Sep-18 17:29N 51°54' E 004°21'0 0.0
2014-Sep-18 16:32N 51°54' E 004°21'0 0.0
2014-Sep-18 15:29N 51°54' E 004°21'0 0.0
2014-Sep-18 14:32N 51°54' E 004°21'0 0.0
2014-Sep-18 13:20N 51°54' E 004°21'0 0.0
2014-Sep-18 12:32N 51°54' E 004°21'0 0.0
2014-Sep-18 11:32N 51°54' E 004°21'0 0.0
2014-Sep-18 10:32N 51°54' E 004°21'0 0.0
2014-Sep-18 09:32N 51°54' E 004°21'0 0.0
2014-Sep-18 08:26N 51°54' E 004°21'0 0.0
2014-Sep-18 07:26N 51°54' E 004°21'0 0.0
2014-Sep-18 06:29N 51°54' E 004°21'0 0.0
2014-Sep-18 05:32N 51°54' E 004°21'0 0.0
2014-Sep-18 04:32N 51°54' E 004°21'0 0.0
2014-Sep-18 03:32N 51°54' E 004°21'0 0.0
2014-Sep-18 02:32N 51°54' E 004°21'0 0.0
2014-Sep-18 01:32N 51°54' E 004°21'0 0.0
2014-Sep-18 00:32N 51°54' E 004°21'0 0.0
2014-Sep-17 23:26N 51°54' E 004°21'0 0.0
2014-Sep-17 22:29N 51°54' E 004°21'0 0.0
2014-Sep-17 21:32N 51°54' E 004°21'0 0.0
2014-Sep-17 20:23N 51°54' E 004°21'0 0.0
2014-Sep-17 19:32N 51°54' E 004°21'0 0.0
2014-Sep-17 18:29N 51°54' E 004°21'0 0.0
2014-Sep-17 17:26N 51°54' E 004°21'0 0.0
2014-Sep-17 16:32N 51°54' E 004°21'0 0.0
2014-Sep-17 15:32N 51°54' E 004°21'0 0.0
2014-Sep-17 14:32N 51°54' E 004°21'0 0.0
2014-Sep-17 13:32N 51°54' E 004°21'0 0.0
2014-Sep-17 12:32N 51°54' E 004°21'0 0.0
2014-Sep-17 11:32N 51°54' E 004°21'1 1.4
2014-Sep-17 10:33N 51°54' E 004°19'10 9.9
2014-Sep-17 09:33N 51°59' E 004°06'1111.3
2014-Sep-17 08:33N 51°59' E 003°47'3 3.1
2014-Sep-17 07:33N 51°56' E 003°49'0 0.0
2014-Sep-17 06:34N 51°56' E 003°49'0 0.1
2014-Sep-17 05:33N 51°56' E 003°48'0 0.1
2014-Sep-17 04:33N 51°56' E 003°48'0 0.1
2014-Sep-17 03:33N 51°56' E 003°48'0 0.0
2014-Sep-17 02:33N 51°56' E 003°48'0 0.0
2014-Sep-17 01:27N 51°56' E 003°48'0 0.0
2014-Sep-17 00:30N 51°56' E 003°49'0 0.1
2014-Sep-16 23:34N 51°56' E 003°49'0 0.1
2014-Sep-16 22:33N 51°56' E 003°49'0 0.0
2014-Sep-16 21:33N 51°56' E 003°49'0 0.0
2014-Sep-16 20:33N 51°56' E 003°49'2 1.9
2014-Sep-16 19:33N 51°58' E 003°47'1212.2
2014-Sep-16 18:33N 51°56' E 003°28'1312.7
2014-Sep-16 17:30N 51°46' E 003°13'1010.5
2014-Sep-16 16:33N 51°38' E 003°22'1111.0
2014-Sep-16 15:33N 51°28' E 003°31'8 8.3
2014-Sep-16 14:33N 51°24' E 003°43'9 9.1
2014-Sep-16 13:33N 51°24' E 003°57'9 9.0
2014-Sep-16 12:34N 51°24' E 004°12'9 8.6
2014-Sep-16 11:34N 51°16' E 004°17'0 0.0
2014-Sep-16 10:33N 51°16' E 004°17'1 0.8
2014-Sep-16 09:30N 51°16' E 004°15'0 0.0
2014-Sep-16 08:30N 51°16' E 004°15'0 0.0
2014-Sep-16 07:30N 51°16' E 004°15'0 0.0
2014-Sep-16 06:24N 51°16' E 004°15'0 0.0
2014-Sep-16 05:27N 51°16' E 004°15'0 0.0
2014-Sep-16 04:24N 51°16' E 004°15'0 0.0
2014-Sep-16 03:30N 51°16' E 004°15'0 0.0
2014-Sep-16 02:33N 51°16' E 004°15'0 0.0
2014-Sep-16 01:30N 51°16' E 004°15'0 0.0
2014-Sep-16 00:30N 51°16' E 004°15'0 0.0
2014-Sep-15 23:30N 51°16' E 004°15'0 0.0
2014-Sep-15 22:33N 51°16' E 004°15'0 0.0
2014-Sep-15 21:33N 51°16' E 004°15'0 0.0
2014-Sep-15 20:24N 51°16' E 004°15'0 0.0
2014-Sep-15 19:12N 51°16' E 004°15'0 0.0
2014-Sep-15 18:06N 51°16' E 004°15'0 0.0
2014-Sep-15 17:24N 51°16' E 004°15'0 0.0
2014-Sep-15 16:24N 51°16' E 004°15'0 0.0
2014-Sep-15 15:24N 51°16' E 004°15'0 0.0
2014-Sep-15 14:30N 51°16' E 004°15'0 0.0
2014-Sep-15 13:24N 51°16' E 004°15'0 0.0
2014-Sep-15 12:30N 51°16' E 004°15'0 0.0
2014-Sep-15 11:30N 51°16' E 004°15'0 0.0
2014-Sep-15 10:27N 51°16' E 004°15'0 0.0
2014-Sep-15 09:12N 51°16' E 004°15'0 0.0
2014-Sep-15 08:27N 51°16' E 004°15'0 0.0
2014-Sep-15 07:30N 51°16' E 004°15'0 0.0
2014-Sep-15 06:30N 51°16' E 004°15'0 0.0
2014-Sep-15 05:30N 51°16' E 004°15'0 0.0
2014-Sep-15 04:30N 51°16' E 004°15'0 0.0
2014-Sep-15 03:33N 51°16' E 004°15'0 0.0
2014-Sep-15 02:06N 51°16' E 004°15'0 0.0
2014-Sep-15 01:30N 51°16' E 004°15'0 0.0
2014-Sep-15 00:33N 51°16' E 004°15'0 0.0
2014-Sep-14 23:33N 51°16' E 004°15'0 0.0
2014-Sep-14 22:33N 51°16' E 004°15'0 0.0
2014-Sep-14 21:30N 51°16' E 004°15'0 0.0
2014-Sep-14 20:33N 51°16' E 004°15'0 0.0
2014-Sep-14 19:33N 51°16' E 004°15'0 0.0
2014-Sep-14 18:33N 51°16' E 004°15'0 0.0
2014-Sep-14 17:33N 51°16' E 004°15'0 0.0
2014-Sep-14 16:30N 51°16' E 004°15'0 0.0
2014-Sep-14 15:33N 51°16' E 004°15'0 0.0
2014-Sep-14 14:30N 51°16' E 004°15'0 0.0
2014-Sep-14 13:33N 51°16' E 004°15'0 0.0
2014-Sep-14 12:30N 51°16' E 004°15'0 0.0
2014-Sep-14 11:30N 51°16' E 004°15'0 0.0
2014-Sep-14 10:24N 51°16' E 004°15'0 0.0
2014-Sep-14 09:33N 51°16' E 004°15'0 0.0
2014-Sep-14 08:33N 51°16' E 004°15'0 0.0
2014-Sep-14 07:33N 51°16' E 004°15'1 0.9
2014-Sep-14 06:34N 51°16' E 004°17'2 2.0
2014-Sep-14 05:34N 51°17' E 004°19'0 0.4
2014-Sep-14 04:34N 51°17' E 004°20'5 5.1
2014-Sep-14 03:33N 51°21' E 004°18'0 0.3
2014-Sep-14 02:32N 51°22' E 004°17'0 0.0
2014-Sep-14 01:18N 51°22' E 004°17'0 0.0
2014-Sep-13 16:21N 51°22' E 004°17'0 0.0
2014-Sep-13 15:30N 51°22' E 004°17'0 0.4
2014-Sep-13 14:33N 51°21' E 004°18'6 6.3
2014-Sep-13 13:33N 51°16' E 004°21'0 0.2
2014-Sep-13 12:32N 51°16' E 004°22'0 0.0
2014-Sep-13 11:32N 51°16' E 004°22'0 0.0
2014-Sep-13 10:32N 51°16' E 004°22'0 0.0
2014-Sep-13 09:32N 51°16' E 004°22'0 0.0
2014-Sep-13 08:32N 51°16' E 004°22'0 0.0
2014-Sep-13 07:32N 51°16' E 004°22'0 0.0
2014-Sep-13 06:32N 51°16' E 004°22'0 0.0
2014-Sep-13 05:29N 51°16' E 004°22'0 0.0
2014-Sep-13 04:32N 51°16' E 004°22'0 0.0
2014-Sep-13 03:29N 51°16' E 004°22'0 0.0
2014-Sep-13 02:29N 51°16' E 004°22'0 0.1
2014-Sep-13 01:33N 51°16' E 004°22'0 0.3
2014-Sep-13 00:31N 51°15' E 004°22'0 0.0
2014-Sep-12 23:31N 51°15' E 004°22'0 0.0
2014-Sep-12 22:28N 51°15' E 004°22'0 0.0
2014-Sep-12 21:31N 51°15' E 004°22'0 0.0
2014-Sep-12 20:31N 51°15' E 004°22'0 0.0
2014-Sep-12 19:31N 51°15' E 004°22'0 0.0
2014-Sep-12 18:31N 51°15' E 004°22'0 0.0
2014-Sep-12 17:31N 51°15' E 004°22'0 0.0
2014-Sep-12 16:31N 51°15' E 004°22'0 0.0
2014-Sep-12 15:31N 51°15' E 004°22'0 0.0
2014-Sep-12 14:31N 51°15' E 004°22'0 0.0
2014-Sep-12 13:31N 51°15' E 004°22'0 0.0
2014-Sep-12 12:31N 51°15' E 004°22'0 0.0
2014-Sep-12 11:31N 51°15' E 004°22'0 0.0
2014-Sep-12 10:31N 51°15' E 004°22'0 0.0
2014-Sep-12 09:31N 51°15' E 004°22'0 0.0
2014-Sep-12 08:31N 51°15' E 004°22'0 0.0
2014-Sep-12 07:31N 51°15' E 004°22'0 0.0
2014-Sep-12 06:31N 51°15' E 004°22'0 0.0
2014-Sep-12 05:31N 51°15' E 004°22'1 0.7
2014-Sep-12 04:33N 51°16' E 004°21'1 1.0
2014-Sep-12 03:34N 51°17' E 004°20'0 0.0
2014-Sep-12 02:33N 51°17' E 004°20'0 0.0
2014-Sep-12 01:33N 51°17' E 004°20'0 0.0
2014-Sep-12 00:30N 51°17' E 004°20'  

Dump ship's entire track history